Time;durP1;ratioP1;P1;durP2;ratioP2;P2;SDS_P1;SDS_P2;PMS_P1;PMS_P2;Temp;Humidity;BMP_temperature;BMP_pressure;BME280_temperature;BME280_humidity;BME280_pressure;Samples;Min_cycle;Max_cycle;Signal;HPM_P1;HPM_P2
2022/08/11 00:01:47;;;;;;;8.43;3.80;;;;;;;20.86;49.04;102133.31;5110180;27;20028;-58
2022/08/11 00:04:14;;;;;;;6.43;3.78;;;;;;;20.73;49.97;102139.41;5113361;28;20087;-57
2022/08/11 00:06:41;;;;;;;5.70;3.47;;;;;;;20.67;49.92;102135.66;5108382;28;20540;-58
2022/08/11 00:09:15;;;;;;;6.72;3.97;;;;;;;20.61;49.07;102122.97;5105855;28;20040;-58
2022/08/11 00:11:55;;;;;;;6.13;3.95;;;;;;;20.65;48.96;102137.69;5100758;28;20110;-58
2022/08/11 00:14:27;;;;;;;7.45;3.72;;;;;;;20.63;49.70;102131.69;5112803;28;20151;-59
2022/08/11 00:16:56;;;;;;;4.90;3.87;;;;;;;20.58;49.79;102126.88;5102754;28;20403;-57
2022/08/11 00:19:25;;;;;;;6.80;4.35;;;;;;;20.61;49.97;102125.66;5109881;28;20278;-57
2022/08/11 00:21:52;;;;;;;6.82;3.97;;;;;;;20.59;49.66;102125.00;5106080;28;20408;-57
2022/08/11 00:24:18;;;;;;;6.75;4.28;;;;;;;20.46;49.46;102126.59;5110205;28;20024;-56
2022/08/11 00:26:51;;;;;;;7.28;4.28;;;;;;;20.55;49.72;102132.66;5109185;28;20076;-57
2022/08/11 00:29:17;;;;;;;5.45;4.00;;;;;;;20.55;49.46;102133.50;5108723;28;20403;-57
2022/08/11 00:31:53;;;;;;;8.82;4.38;;;;;;;20.56;49.38;102129.78;5108239;28;20023;-58
2022/08/11 00:34:30;;;;;;;7.65;4.00;;;;;;;20.45;49.47;102122.22;5110383;28;20019;-56
2022/08/11 00:37:03;;;;;;;4.85;3.80;;;;;;;20.51;49.79;102134.91;5106086;28;20395;-57
2022/08/11 00:39:32;;;;;;;7.78;4.28;;;;;;;20.44;50.28;102136.75;5110966;28;20044;-56
2022/08/11 00:42:01;;;;;;;5.53;4.30;;;;;;;20.47;50.11;102133.63;5111852;28;20473;-58
2022/08/11 00:44:40;;;;;;;6.82;4.25;;;;;;;20.45;49.73;102133.00;5102003;28;20059;-57
2022/08/11 00:47:14;;;;;;;5.18;4.20;;;;;;;20.40;50.87;102130.06;5109926;28;20042;-58
2022/08/11 00:50:23;;;;;;;8.90;4.60;;;;;;;20.45;50.37;102127.63;5106655;28;20115;-57
2022/08/11 00:53:22;;;;;;;4.85;4.03;;;;;;;20.48;49.86;102126.41;5108222;28;20031;-57
2022/08/11 00:56:06;;;;;;;7.13;4.20;;;;;;;20.39;50.44;102128.41;5108579;28;20114;-56
2022/08/11 00:59:09;;;;;;;6.55;4.40;;;;;;;20.39;50.00;102131.09;5098152;28;20527;-57
2022/08/11 01:01:37;;;;;;;7.18;4.57;;;;;;;20.17;50.79;102125.75;5108020;28;20487;-56
2022/08/11 01:04:21;;;;;;;5.63;4.00;;;;;;;20.24;50.40;102125.81;5112761;28;20137;-58
2022/08/11 01:06:49;;;;;;;5.82;4.30;;;;;;;20.14;50.83;102123.44;5111866;28;20084;-57
2022/08/11 01:09:29;;;;;;;10.35;4.30;;;;;;;20.15;51.46;102128.66;5108068;27;20059;-57
2022/08/11 01:12:25;;;;;;;6.47;4.13;;;;;;;20.11;51.06;102121.97;5098534;28;20032;-57
2022/08/11 01:15:23;;;;;;;8.27;4.45;;;;;;;20.10;50.82;102114.09;5100485;28;20039;-57
2022/08/11 01:18:26;;;;;;;8.38;4.28;;;;;;;20.09;50.80;102117.81;5110104;28;20023;-58
2022/08/11 01:21:09;;;;;;;6.32;4.45;;;;;;;20.07;51.68;102130.66;5105044;28;20039;-58
2022/08/11 01:23:46;;;;;;;6.22;4.50;;;;;;;19.99;51.21;102129.72;5103946;28;20512;-57
2022/08/11 01:26:50;;;;;;;7.15;4.47;;;;;;;20.08;51.22;102122.34;5111556;28;20032;-57
2022/08/11 01:29:53;;;;;;;7.97;5.20;;;;;;;20.01;50.91;102125.00;5110597;27;20460;-57
2022/08/11 01:32:30;;;;;;;7.30;4.60;;;;;;;19.92;51.80;102128.81;5102368;28;20030;-57
2022/08/11 01:35:17;;;;;;;5.93;4.57;;;;;;;19.85;52.35;102138.69;5100654;28;20450;-57
2022/08/11 01:38:09;;;;;;;9.20;4.70;;;;;;;19.88;51.67;102132.91;5106358;28;20038;-58
2022/08/11 01:41:08;;;;;;;6.93;4.70;;;;;;;19.84;51.72;102132.47;5105445;27;20436;-58
2022/08/11 01:50:31;;;;;;;7.20;4.80;;;;;;;19.86;51.70;102138.50;5108492;27;20164;-58
2022/08/11 01:53:24;;;;;;;7.05;4.60;;;;;;;19.81;51.63;102137.41;5109485;28;20411;-58
2022/08/11 01:56:03;;;;;;;6.47;4.72;;;;;;;19.67;52.09;102142.66;5111718;28;20040;-57
2022/08/11 01:58:41;;;;;;;9.43;4.85;;;;;;;19.57;52.40;102134.03;5110183;28;20036;-58
2022/08/11 02:01:21;;;;;;;7.57;4.88;;;;;;;19.62;51.89;102135.16;5108572;27;20027;-57
2022/08/11 02:04:05;;;;;;;5.55;4.75;;;;;;;19.57;52.38;102131.34;5104169;28;20019;-57
2022/08/11 02:06:57;;;;;;;7.10;4.43;;;;;;;19.59;51.99;102137.41;5108488;28;20537;-57
2022/08/11 02:09:42;;;;;;;5.43;4.63;;;;;;;19.55;52.25;102136.94;5116558;27;20359;-58
2022/08/11 02:12:25;;;;;;;9.35;4.97;;;;;;;19.41;52.70;102138.66;5111189;27;20498;-57
2022/08/11 02:15:04;;;;;;;7.85;4.60;;;;;;;19.47;52.52;102137.03;5096173;28;20028;-57
2022/08/11 02:17:47;;;;;;;6.07;4.57;;;;;;;19.42;52.59;102142.16;5105853;28;20510;-57
2022/08/11 02:23:40;;;;;;;7.30;4.50;;;;;;;19.42;52.46;102140.31;5099781;28;20038;-56
2022/08/11 02:26:22;;;;;;;5.13;4.63;;;;;;;19.30;52.85;102141.81;5109846;28;20023;-58
2022/08/11 02:29:24;;;;;;;7.28;4.65;;;;;;;19.24;52.87;102127.25;5108735;28;20035;-58
2022/08/11 02:35:21;;;;;;;8.85;5.10;;;;;;;19.16;53.28;102132.75;5109543;28;20039;-57
2022/08/11 02:38:21;;;;;;;7.85;4.88;;;;;;;19.20;52.76;102126.78;5108561;28;20038;-57
2022/08/11 02:40:58;;;;;;;7.28;5.00;;;;;;;19.08;53.52;102128.28;5106963;28;20038;-57
2022/08/11 02:43:36;;;;;;;7.82;5.20;;;;;;;19.09;53.47;102124.59;5105173;28;20416;-57
2022/08/11 02:46:23;;;;;;;6.25;4.80;;;;;;;19.05;53.17;102118.75;5110113;28;20043;-56
2022/08/11 02:52:04;;;;;;;7.85;5.05;;;;;;;18.95;53.94;102124.38;5104304;28;20050;-56
2022/08/11 02:54:49;;;;;;;8.52;5.13;;;;;;;18.91;53.89;102117.69;5108043;28;20073;-58
2022/08/11 02:57:50;;;;;;;12.07;5.50;;;;;;;18.91;53.59;102122.25;5099095;28;20031;-58
2022/08/11 03:00:17;;;;;;;10.48;5.25;;;;;;;18.80;54.41;102131.63;5088745;28;20088;-57
2022/08/11 03:03:17;;;;;;;6.97;5.40;;;;;;;18.84;53.97;102127.53;5100425;28;20427;-57
2022/08/11 03:06:08;;;;;;;8.07;5.70;;;;;;;18.77;54.06;102116.72;5097146;28;20097;-58
2022/08/11 03:08:52;;;;;;;6.70;5.30;;;;;;;18.78;54.45;102128.28;5108527;28;20055;-57
2022/08/11 03:17:32;;;;;;;11.57;5.53;;;;;;;18.62;54.72;102124.75;5114531;28;20069;-57
2022/08/11 03:20:16;;;;;;;;;;;;;;;18.79;53.53;102127.25;5112688;27;20511;-57
2022/08/11 03:22:56;;;;;;;11.55;6.18;;;;;;;18.55;55.16;102118.44;5107474;28;20412;-58
2022/08/11 03:25:33;;;;;;;13.25;6.00;;;;;;;18.51;55.57;102122.53;5112060;28;20032;-57
2022/08/11 03:28:37;;;;;;;11.82;5.70;;;;;;;18.56;54.75;102125.50;5102585;28;20099;-58
2022/08/11 03:31:23;;;;;;;7.65;5.70;;;;;;;18.52;55.13;102129.56;5051492;28;20047;-57
2022/08/11 03:34:03;;;;;;;8.07;5.70;;;;;;;18.41;55.65;102131.66;5036709;28;20438;-56
2022/08/11 03:36:45;;;;;;;8.93;5.88;;;;;;;18.36;55.93;102130.56;5089261;28;20046;-56
2022/08/11 03:39:32;;;;;;;9.90;6.00;;;;;;;18.27;56.02;102124.44;5104506;27;20063;-57
2022/08/11 03:42:34;;;;;;;10.85;6.00;;;;;;;18.36;55.65;102135.94;5112002;28;20024;-58
2022/08/11 03:45:21;;;;;;;10.45;5.88;;;;;;;18.36;55.58;102130.56;5102958;28;20054;-57
2022/08/11 03:47:55;;;;;;;9.18;6.25;;;;;;;18.22;56.28;102130.34;5103010;28;20032;-57
2022/08/11 03:50:42;;;;;;;13.40;6.32;;;;;;;18.33;55.53;102126.38;5101915;28;20035;-56
2022/08/11 03:53:31;;;;;;;8.02;6.35;;;;;;;18.32;55.82;102123.88;5114243;28;20027;-56
2022/08/11 03:56:30;;;;;;;9.18;5.72;;;;;;;18.31;55.99;102128.44;5110506;28;20023;-57
2022/08/11 03:59:33;;;;;;;12.32;6.13;;;;;;;18.27;55.75;102119.88;5105882;27;20046;-56
2022/08/11 04:02:13;;;;;;;11.02;6.03;;;;;;;18.22;56.12;102119.59;5073365;28;20044;-57
2022/08/11 04:05:13;;;;;;;9.23;5.85;;;;;;;18.20;56.21;102124.31;5108771;28;20062;-58
2022/08/11 04:07:47;;;;;;;8.57;5.90;;;;;;;18.19;56.33;102121.78;5106104;28;20028;-56
2022/08/11 04:10:32;;;;;;;10.85;6.30;;;;;;;18.14;56.49;102112.44;5103130;28;20035;-58
2022/08/11 04:13:34;;;;;;;7.15;5.65;;;;;;;18.18;56.38;102122.81;5104258;28;20134;-57
2022/08/11 04:16:52;;;;;;;8.82;5.93;;;;;;;18.13;56.41;102115.31;5107159;28;20031;-56
2022/08/11 04:19:43;;;;;;;10.45;6.30;;;;;;;18.09;56.63;102114.84;5020838;28;20041;-58
2022/08/11 04:22:33;;;;;;;8.68;6.40;;;;;;;18.10;56.57;102111.13;5104592;28;20126;-57
2022/08/11 04:25:22;;;;;;;9.55;6.00;;;;;;;18.03;56.74;102115.53;5112398;28;20032;-57
2022/08/11 04:28:18;;;;;;;8.82;6.40;;;;;;;18.03;56.84;102115.53;5111574;28;20026;-57
2022/08/11 04:30:58;;;;;;;8.98;5.85;;;;;;;17.99;57.14;102114.22;5106830;27;20054;-56
2022/08/11 04:33:47;;;;;;;9.82;6.07;;;;;;;17.95;57.30;102115.59;5109312;28;20045;-58
2022/08/11 04:40:10;;;;;;;8.93;6.25;;;;;;;17.96;57.19;102120.78;5100742;27;20157;-57
2022/08/11 04:43:19;;;;;;;8.20;6.30;;;;;;;17.95;57.38;102112.91;5096680;28;20035;-57
2022/08/11 04:46:33;;;;;;;8.80;6.60;;;;;;;17.86;57.72;102118.34;5104392;28;20071;-57
2022/08/11 05:02:00;;;;;;;12.20;6.85;;;;;;;17.69;58.74;102125.66;5108032;28;20519;-57
2022/08/11 05:05:29;;;;;;;12.63;6.70;;;;;;;17.76;58.65;102120.41;5092969;28;20081;-58
2022/08/11 05:07:29;;;;;;;10.95;6.80;;;;;;;17.79;58.30;102125.44;5103944;28;20036;-57
2022/08/11 05:10:29;;;;;;;10.75;6.85;;;;;;;17.79;58.31;102133.47;5087763;28;20047;-57
2022/08/11 05:12:55;;;;;;;9.98;7.20;;;;;;;17.75;58.68;102124.09;5105775;28;20042;-57
2022/08/11 05:36:15;;;;;;;12.98;7.90;;;;;;;18.00;58.26;102129.28;5104870;28;20043;-58
2022/08/11 05:58:24;;;;;;;13.98;9.75;;;;;;;18.14;59.19;102133.94;5100338;28;20050;-60
2022/08/11 06:00:51;;;;;;;14.25;9.25;;;;;;;18.26;59.18;102136.19;5113823;27;20517;-58
2022/08/11 06:03:24;;;;;;;18.02;9.52;;;;;;;18.31;58.97;102125.75;5106808;28;20016;-58
2022/08/11 06:05:51;;;;;;;12.93;9.15;;;;;;;18.35;58.77;102129.72;5098367;28;20082;-58
2022/08/11 06:08:17;;;;;;;12.75;9.13;;;;;;;18.46;58.98;102135.66;5108183;28;20048;-59
2022/08/11 06:10:43;;;;;;;13.63;8.68;;;;;;;18.47;59.22;102137.31;5099153;27;20111;-59
2022/08/11 06:13:14;;;;;;;13.25;8.45;;;;;;;18.46;58.98;102125.75;5110906;28;20031;-58
2022/08/11 06:15:45;;;;;;;13.80;8.18;;;;;;;18.58;58.44;102144.94;5112155;28;20032;-58
2022/08/11 06:18:12;;;;;;;15.05;8.48;;;;;;;18.65;58.92;102145.88;5097787;28;20031;-59
2022/08/11 06:20:53;;;;;;;11.05;7.88;;;;;;;18.75;58.03;102139.41;5108763;27;20465;-58
2022/08/11 06:23:23;;;;;;;10.25;8.13;;;;;;;18.78;58.21;102139.88;5109849;28;20077;-58
2022/08/11 06:25:51;;;;;;;12.18;8.32;;;;;;;18.84;58.15;102138.28;5112199;28;20034;-58
2022/08/11 06:28:19;;;;;;;13.25;8.50;;;;;;;18.87;58.41;102135.25;5108554;28;20055;-59
2022/08/11 06:30:46;;;;;;;11.82;7.90;;;;;;;18.96;58.62;102139.47;5115155;28;20465;-58
2022/08/11 06:33:38;;;;;;;10.68;8.10;;;;;;;19.03;58.30;102136.09;5097817;28;20028;-59
2022/08/11 06:36:24;;;;;;;15.13;7.85;;;;;;;19.12;57.25;102140.34;5097377;28;20031;-59
2022/08/11 06:39:19;;;;;;;12.70;8.05;;;;;;;19.16;57.79;102133.59;5113588;28;20028;-58
2022/08/11 06:41:50;;;;;;;12.05;8.30;;;;;;;19.14;57.58;102132.09;5105312;28;20055;-58
2022/08/11 06:44:26;;;;;;;12.35;7.63;;;;;;;19.26;57.64;102135.97;5104360;28;20031;-58
2022/08/11 06:46:54;;;;;;;13.85;8.43;;;;;;;19.29;57.46;102145.53;5105721;28;20031;-59
2022/08/11 06:52:12;;;;;;;14.52;8.23;;;;;;;19.41;57.36;102141.34;5115097;28;20103;-59
2022/08/11 06:54:48;;;;;;;12.27;8.07;;;;;;;19.51;57.44;102153.63;5116108;28;20508;-59
2022/08/11 07:03:07;;;;;;;10.40;7.75;;;;;;;19.80;57.03;102141.13;5105906;28;20077;-58
2022/08/11 07:05:52;;;;;;;14.95;8.00;;;;;;;19.85;56.28;102146.75;5116022;28;20058;-59
2022/08/11 07:17:14;;;;;;;10.77;7.18;;;;;;;20.22;55.11;102136.75;5113840;28;20136;-58
2022/08/11 07:28:54;;;;;;;10.65;7.18;;;;;;;20.34;55.63;102147.84;5101740;28;20330;-59
2022/08/11 07:31:13;;;;;;;11.60;7.18;;;;;;;20.70;54.46;102140.63;5103702;28;20460;-59
2022/08/11 07:33:45;;;;;;;14.35;7.00;;;;;;;20.78;54.17;102143.16;5114745;28;20496;-59
2022/08/11 07:36:12;;;;;;;13.95;7.07;;;;;;;20.89;53.77;102143.66;5099087;28;20085;-59
2022/08/11 07:38:44;;;;;;;10.07;6.80;;;;;;;20.97;53.75;102140.84;5112771;28;20038;-59
2022/08/11 07:41:12;;;;;;;12.30;6.95;;;;;;;21.06;53.34;102136.91;5106818;28;20534;-58
2022/08/11 07:43:39;;;;;;;11.18;6.35;;;;;;;21.19;52.89;102138.00;5100479;28;20660;-58
2022/08/11 07:54:20;;;;;;;9.55;6.30;;;;;;;21.62;51.47;102140.41;5108329;28;20148;-58
2022/08/11 07:56:46;;;;;;;14.77;6.50;;;;;;;21.71;51.22;102146.50;5108744;28;20107;-58
2022/08/11 08:18:34;;;;;;;8.00;5.40;;;;;;;22.65;47.24;102151.09;5113348;28;20091;-59
2022/08/11 08:21:10;;;;;;;9.95;4.85;;;;;;;22.78;46.95;102144.00;5122679;27;20027;-58
2022/08/11 08:23:38;;;;;;;8.07;4.80;;;;;;;22.80;47.12;102137.34;5108837;28;20106;-59
2022/08/11 08:26:57;;;;;;;9.82;5.00;;;;;;;22.96;46.60;102146.88;5113886;28;20043;-57
2022/08/11 08:30:46;;;;;;;10.23;4.90;;;;;;;23.02;45.84;102155.16;5108237;27;20066;-60
2022/08/11 08:31:42;;;;;;;8.30;4.72;;;;;;;23.13;46.10;102143.69;5100870;28;20032;-58
2022/08/11 08:34:08;;;;;;;8.18;4.80;;;;;;;23.16;45.84;102148.69;5114065;28;20035;-58
2022/08/11 08:36:34;;;;;;;10.27;5.03;;;;;;;23.30;45.37;102149.44;5110629;28;20081;-58
2022/08/11 08:39:00;;;;;;;10.60;4.88;;;;;;;23.38;44.47;102142.97;5108271;28;20136;-59
2022/08/11 08:41:28;;;;;;;11.63;5.15;;;;;;;23.43;43.70;102139.63;5101129;28;20031;-57
2022/08/11 08:44:01;;;;;;;10.25;5.47;;;;;;;23.43;44.11;102135.03;5106127;28;20043;-59
2022/08/11 08:46:35;;;;;;;8.60;4.93;;;;;;;23.54;45.20;102136.25;5091594;28;20024;-59
2022/08/11 08:49:03;;;;;;;8.68;5.43;;;;;;;23.63;43.48;102131.41;5112093;27;20031;-59
2022/08/11 08:51:34;;;;;;;9.55;5.00;;;;;;;23.71;44.28;102136.53;5111806;27;20024;-59
2022/08/11 08:54:04;;;;;;;9.68;5.10;;;;;;;23.75;43.70;102132.34;5113914;28;20066;-58
2022/08/11 08:56:33;;;;;;;7.00;4.55;;;;;;;23.87;43.26;102139.75;5111136;28;20079;-59
2022/08/11 08:59:01;;;;;;;9.38;5.03;;;;;;;23.90;43.03;102144.75;5104049;27;20032;-58
2022/08/11 09:01:32;;;;;;;9.27;4.97;;;;;;;23.95;42.79;102134.09;5108793;27;20020;-58
2022/08/11 09:03:57;;;;;;;12.73;5.00;;;;;;;24.02;43.45;102136.72;5105907;28;20028;-58
2022/08/11 09:06:23;;;;;;;11.52;4.85;;;;;;;24.19;44.30;102137.03;5107268;28;20032;-58
2022/08/11 09:08:49;;;;;;;7.85;4.70;;;;;;;24.28;43.64;102135.69;5112448;28;20472;-58
2022/08/11 09:14:01;;;;;;;7.68;4.22;;;;;;;24.39;41.63;102138.75;5095911;28;20439;-58
2022/08/11 09:16:27;;;;;;;8.82;4.88;;;;;;;24.45;41.46;102129.72;5098461;28;20040;-59
2022/08/11 09:18:53;;;;;;;10.18;4.80;;;;;;;24.51;41.36;102128.81;5108615;28;20097;-57
2022/08/11 09:21:22;;;;;;;9.55;4.68;;;;;;;24.56;40.77;102134.41;5098052;28;20019;-59
2022/08/11 09:29:20;;;;;;;7.00;4.28;;;;;;;24.87;39.87;102125.53;5113505;27;21436;-57
2022/08/11 09:31:46;;;;;;;6.20;4.50;;;;;;;24.93;38.81;102130.06;5106561;28;20034;-61
2022/08/11 09:34:13;;;;;;;11.45;4.43;;;;;;;25.00;37.76;102122.66;5105259;27;20027;-59
2022/08/11 09:42:20;;;;;;;8.55;4.30;;;;;;;25.24;38.95;102120.06;5083336;28;20081;-57
2022/08/11 09:44:51;;;;;;;7.75;4.07;;;;;;;25.39;39.55;102111.50;5104495;28;20051;-58
2022/08/11 09:47:25;;;;;;;8.70;4.25;;;;;;;25.44;38.87;102105.38;5105941;28;20023;-58
2022/08/11 09:50:01;;;;;;;11.00;4.30;;;;;;;25.52;38.21;102110.50;5100373;28;20083;-57
2022/08/11 09:52:29;;;;;;;14.00;4.40;;;;;;;25.68;38.82;102113.59;5102425;28;20164;-58
2022/08/11 09:54:55;;;;;;;7.05;4.53;;;;;;;25.75;38.14;102114.34;5103684;28;20027;-59
2022/08/11 10:00:08;;;;;;;7.88;4.30;;;;;;;25.96;39.03;102093.09;5094735;28;20499;-61
2022/08/11 10:02:41;;;;;;;7.70;4.10;;;;;;;26.12;37.19;102103.28;5107805;28;20038;-60
2022/08/11 10:07:52;;;;;;;5.80;4.20;;;;;;;26.24;35.16;102105.22;5109903;28;20002;-60
2022/08/11 10:10:21;;;;;;;6.80;4.10;;;;;;;26.31;36.24;102100.47;5105714;27;20035;-60
2022/08/11 10:12:49;;;;;;;7.78;4.00;;;;;;;26.40;35.45;102096.31;5107267;28;20023;-59
2022/08/11 10:15:33;;;;;;;8.60;3.90;;;;;;;26.44;34.95;102088.53;5110850;28;20027;-59
2022/08/11 10:20:54;;;;;;;6.90;3.95;;;;;;;26.67;34.67;102098.53;5104071;28;20097;-62
2022/08/11 10:28:51;;;;;;;8.80;3.88;;;;;;;26.88;34.71;102088.03;5102232;28;20765;-61
2022/08/11 10:34:03;;;;;;;6.63;4.10;;;;;;;27.03;35.20;102084.00;5106319;28;20089;-60
2022/08/11 10:36:41;;;;;;;11.55;4.00;;;;;;;27.10;33.36;102079.25;5107446;28;20050;-59
2022/08/11 10:39:06;;;;;;;7.80;3.90;;;;;;;27.16;32.86;102072.81;5097150;28;20101;-60
2022/08/11 10:44:19;;;;;;;7.93;3.90;;;;;;;27.41;33.74;102079.78;5106080;28;20164;-60
2022/08/11 10:49:30;;;;;;;8.85;3.83;;;;;;;27.52;32.74;102081.63;5102971;28;20459;-60
2022/08/11 11:00:14;;;;;;;8.60;4.00;;;;;;;27.85;31.66;102067.44;5107183;28;20046;-59
2022/08/11 11:02:43;;;;;;;8.48;4.97;;;;;;;27.85;32.17;102072.91;5106015;28;20023;-60
2022/08/11 11:05:15;;;;;;;7.85;4.03;;;;;;;27.87;31.97;102054.41;5110820;28;20032;-60
2022/08/11 11:08:51;;;;;;;5.72;4.03;;;;;;;27.92;32.71;102057.22;5108273;28;20403;-60
2022/08/11 11:10:55;;;;;;;;;;;;;;;28.01;33.03;102050.25;5110968;28;20066;-60
2022/08/11 11:18:55;;;;;;;6.22;3.85;;;;;;;28.35;30.63;102048.56;5106926;28;20112;-60
2022/08/11 11:21:23;;;;;;;6.38;4.03;;;;;;;28.42;30.68;102046.47;5111830;28;20457;-60
2022/08/11 11:23:59;;;;;;;6.30;3.65;;;;;;;28.63;30.50;102041.25;5104375;28;20083;-60
2022/08/11 11:26:57;;;;;;;10.93;3.90;;;;;;;28.72;31.73;102047.91;5106277;28;20035;-60
2022/08/11 11:29:38;;;;;;;9.15;3.80;;;;;;;28.69;30.14;102038.31;5102085;28;20115;-59
2022/08/11 11:32:24;;;;;;;5.45;3.90;;;;;;;28.55;30.13;102037.06;5115224;28;20471;-59
2022/08/11 11:35:09;;;;;;;6.43;4.03;;;;;;;28.57;30.35;102035.72;5102519;28;20036;-58
2022/08/11 11:37:36;;;;;;;5.68;3.75;;;;;;;28.73;30.65;102035.91;5112071;28;20073;-59
2022/08/11 11:40:09;;;;;;;8.75;3.65;;;;;;;28.89;29.99;102034.19;5116930;27;20465;-59
2022/08/11 11:42:35;;;;;;;7.03;3.58;;;;;;;29.02;28.86;102035.69;5113643;28;20043;-60
2022/08/11 11:45:02;;;;;;;4.75;3.42;;;;;;;29.12;28.80;102032.22;5109004;28;20496;-59
2022/08/11 11:47:29;;;;;;;6.13;3.70;;;;;;;29.15;29.00;102026.22;5111428;28;20019;-59
2022/08/11 11:49:55;;;;;;;6.25;3.50;;;;;;;29.19;29.34;102029.28;5114612;27;20028;-59
2022/08/11 11:52:22;;;;;;;4.55;3.55;;;;;;;29.20;28.28;102018.09;5110753;28;20031;-59
2022/08/11 11:54:50;;;;;;;6.20;3.33;;;;;;;29.18;27.75;102027.63;5108380;28;20024;-59
2022/08/11 12:02:57;;;;;;;6.68;3.30;;;;;;;29.50;26.91;102021.38;5090742;28;20922;-59
2022/08/11 12:05:23;;;;;;;5.55;3.30;;;;;;;29.57;26.66;102018.41;5101117;28;20043;-58
2022/08/11 12:10:34;;;;;;;4.68;3.50;;;;;;;29.67;26.13;102013.84;5106415;27;20101;-58
2022/08/11 12:15:47;;;;;;;7.18;3.20;;;;;;;29.42;24.96;101999.97;5109389;28;21270;-58
2022/08/11 12:18:15;;;;;;;5.85;3.55;;;;;;;29.45;25.87;102004.91;5111263;28;20092;-59
2022/08/11 12:20:41;;;;;;;8.50;3.40;;;;;;;29.59;26.49;102006.13;5106844;28;20020;-61
2022/08/11 12:28:38;;;;;;;5.13;3.50;;;;;;;29.82;25.82;102000.53;5106665;28;20670;-58
2022/08/11 12:31:05;;;;;;;4.30;3.30;;;;;;;29.88;24.94;101994.81;5110682;27;20027;-59
2022/08/11 12:33:30;;;;;;;5.88;3.30;;;;;;;29.99;25.08;101986.69;5105477;28;20047;-59
2022/08/11 12:35:58;;;;;;;6.65;3.35;;;;;;;30.03;25.61;101987.78;5112076;28;20460;-62
2022/08/11 12:38:24;;;;;;;4.65;3.28;;;;;;;30.12;25.67;101980.75;5102357;28;20107;-60
2022/08/11 12:46:30;;;;;;;4.68;3.28;;;;;;;30.24;24.71;101971.50;5103375;28;20511;-58
2022/08/11 12:51:57;;;;;;;5.32;3.35;;;;;;;30.26;25.97;101969.31;5110933;28;20153;-60
2022/08/11 12:54:43;;;;;;;7.32;3.50;;;;;;;30.34;25.64;101971.53;5107979;28;20027;-59
2022/08/11 13:06:03;;;;;;;5.57;3.53;;;;;;;30.49;24.29;101959.81;5100473;28;20159;-59
2022/08/11 13:08:32;;;;;;;6.13;3.28;;;;;;;30.49;23.38;101957.09;5113221;28;20525;-58
2022/08/11 13:13:46;;;;;;;5.15;3.20;;;;;;;30.71;23.34;101945.91;5102658;28;20047;-58
2022/08/11 13:16:13;;;;;;;4.72;3.28;;;;;;;30.86;23.72;101944.28;5108363;27;20019;-59
2022/08/11 13:18:41;;;;;;;5.45;3.10;;;;;;;31.00;23.28;101939.91;5111631;28;20024;-58
2022/08/11 13:21:09;;;;;;;5.65;3.10;;;;;;;31.06;23.53;101937.16;5100712;27;20131;-59
2022/08/11 13:23:36;;;;;;;4.88;3.42;;;;;;;30.97;23.03;101934.13;5105105;27;20027;-59
2022/08/11 13:26:02;;;;;;;5.25;3.20;;;;;;;31.04;23.31;101933.88;5103873;28;20040;-58
2022/08/11 13:28:28;;;;;;;3.58;3.20;;;;;;;31.11;24.22;101935.25;5101365;28;20035;-59
2022/08/11 13:31:13;;;;;;;4.82;3.17;;;;;;;31.20;23.34;101930.03;5107524;28;20039;-58
2022/08/11 13:33:45;;;;;;;5.10;3.20;;;;;;;31.20;23.16;101927.28;5106097;28;20074;-59
2022/08/11 13:36:11;;;;;;;7.13;3.37;;;;;;;31.17;23.51;101930.56;5112526;28;20059;-57
2022/08/11 13:38:40;;;;;;;4.28;3.40;;;;;;;30.86;23.04;101927.84;5108335;28;20036;-58
2022/08/11 13:41:36;;;;;;;6.28;3.28;;;;;;;30.96;24.25;101930.59;5108049;27;20492;-58
2022/08/11 13:43:52;;;;;;;4.28;3.30;;;;;;;31.05;23.23;101925.38;5112028;28;20039;-59
2022/08/11 13:46:21;;;;;;;5.78;3.35;;;;;;;31.00;23.15;101914.44;5112233;28;20047;-58
2022/08/11 13:48:48;;;;;;;4.07;3.35;;;;;;;31.02;23.48;101925.13;5100448;27;20068;-58
2022/08/11 13:51:29;;;;;;;5.32;3.35;;;;;;;31.06;23.40;101915.22;5107527;27;20028;-59
2022/08/11 13:54:03;;;;;;;12.73;4.25;;;;;;;31.17;24.08;101918.81;5110790;28;20034;-58
2022/08/11 13:56:30;;;;;;;6.70;3.33;;;;;;;31.13;23.76;101899.38;5108788;28;20522;-58
2022/08/11 13:58:56;;;;;;;8.00;3.30;;;;;;;31.09;23.43;101909.22;5108675;28;20476;-58
2022/08/11 14:01:27;;;;;;;10.55;3.42;;;;;;;31.00;23.94;101907.06;5104845;28;20409;-58
2022/08/11 14:03:53;;;;;;;8.45;3.53;;;;;;;31.05;24.33;101897.16;5101184;28;20120;-60
2022/08/11 14:06:20;;;;;;;4.60;3.20;;;;;;;31.08;23.70;101907.59;5102134;28;20066;-58
2022/08/11 14:08:47;;;;;;;5.10;3.10;;;;;;;31.04;23.85;101895.53;5107742;28;20073;-59
2022/08/11 14:14:03;;;;;;;6.78;3.58;;;;;;;31.09;23.48;101898.25;5106664;28;20042;-58
2022/08/11 14:16:32;;;;;;;5.47;3.20;;;;;;;31.00;23.84;101896.09;5108019;28;20080;-58
2022/08/11 14:19:03;;;;;;;6.25;3.40;;;;;;;31.19;24.55;101892.78;5105118;28;20036;-59
2022/08/11 14:24:17;;;;;;;9.70;3.38;;;;;;;31.06;24.49;101893.31;5105350;28;20435;-57
2022/08/11 14:26:46;;;;;;;5.78;3.40;;;;;;;31.14;23.42;101884.56;5106870;28;20031;-59
2022/08/11 14:29:18;;;;;;;6.03;3.80;;;;;;;31.20;23.92;101882.63;5104860;28;20055;-58
2022/08/11 14:31:49;;;;;;;4.70;3.47;;;;;;;31.28;23.92;101884.84;5104380;28;20102;-59
2022/08/11 14:34:19;;;;;;;8.83;3.50;;;;;;;31.27;23.11;101884.00;5104008;28;20028;-57
2022/08/11 14:36:51;;;;;;;9.60;3.47;;;;;;;31.24;23.41;101879.06;5107343;28;20032;-58
2022/08/11 14:39:20;;;;;;;8.20;3.47;;;;;;;31.31;22.83;101878.78;5106009;28;20107;-58
2022/08/11 14:47:18;;;;;;;5.30;3.47;;;;;;;31.38;23.75;101873.03;5107533;28;20147;-59
2022/08/11 14:49:45;;;;;;;4.97;3.53;;;;;;;31.41;24.19;101877.94;5100353;28;20747;-59
2022/08/11 14:52:14;;;;;;;5.65;3.50;;;;;;;31.44;23.41;101882.06;5097465;28;20145;-60
2022/08/11 14:57:28;;;;;;;8.48;3.70;;;;;;;31.35;23.14;101877.16;5098110;28;20384;-60
2022/08/11 14:59:57;;;;;;;6.80;3.40;;;;;;;31.35;23.48;101868.09;5099946;28;20042;-59
2022/08/11 15:05:07;;;;;;;7.97;3.63;;;;;;;31.49;23.06;101860.94;5100535;28;20039;-59
2022/08/11 15:07:33;;;;;;;5.72;3.70;;;;;;;31.36;23.48;101856.03;5114430;28;20027;-58
2022/08/11 15:10:05;;;;;;;6.18;3.65;;;;;;;31.40;23.58;101857.13;5109493;28;20038;-58
2022/08/11 15:12:31;;;;;;;4.93;3.50;;;;;;;31.45;23.36;101859.84;5114608;28;20027;-59
2022/08/11 15:17:43;;;;;;;5.88;3.20;;;;;;;31.32;21.84;101855.78;5109820;28;20395;-59
2022/08/11 15:25:49;;;;;;;5.78;3.20;;;;;;;31.44;22.92;101852.75;5110441;28;20043;-59
2022/08/11 15:45:46;;;;;;;5.47;3.30;;;;;;;31.31;22.98;101829.47;5115803;27;20042;-59
2022/08/11 15:47:58;;;;;;;7.82;5.82;;;;;;;31.31;23.08;101828.69;5098869;28;20051;-58
2022/08/11 15:50:29;;;;;;;8.27;3.65;;;;;;;31.20;23.40;101834.16;5103765;27;20081;-59
2022/08/11 15:53:01;;;;;;;5.47;3.13;;;;;;;31.14;24.35;101829.78;5101466;28;20428;-59
2022/08/11 15:55:28;;;;;;;3.65;3.05;;;;;;;31.28;23.46;101824.56;5113280;28;20024;-58
2022/08/11 16:06:18;;;;;;;5.45;3.20;;;;;;;31.09;22.60;101822.41;5110308;28;20111;-58
2022/08/11 16:08:45;;;;;;;9.43;3.50;;;;;;;31.07;24.70;101815.56;5113661;27;20042;-58
2022/08/11 16:11:12;;;;;;;4.90;3.30;;;;;;;30.87;22.74;101809.00;5101763;28;20031;-58
2022/08/11 16:16:13;;;;;;;5.85;3.10;;;;;;;30.85;23.34;101811.22;5108235;28;20088;-58
2022/08/11 16:18:50;;;;;;;6.45;3.15;;;;;;;30.89;23.83;101806.84;5109130;28;20059;-58
2022/08/11 16:21:22;;;;;;;5.32;3.00;;;;;;;30.70;22.89;101799.22;5101751;28;20067;-60
2022/08/11 16:23:50;;;;;;;3.38;3.08;;;;;;;30.58;23.77;101806.84;5111513;28;20023;-57
2022/08/11 16:26:22;;;;;;;4.38;3.00;;;;;;;30.44;23.49;101806.59;5109578;28;20053;-58
2022/08/11 16:28:50;;;;;;;4.32;3.30;;;;;;;30.44;25.49;101801.91;5105700;28;20016;-60
2022/08/11 16:31:17;;;;;;;6.55;3.22;;;;;;;30.32;23.51;101798.63;5112714;27;20472;-57
2022/08/11 16:33:45;;;;;;;5.40;3.20;;;;;;;30.18;24.61;101799.16;5111352;28;20027;-60
2022/08/11 16:38:58;;;;;;;6.43;3.28;;;;;;;30.11;25.48;101790.41;5106513;28;20092;-58